Finnhawk — OJNL — position and weather

sailwx.info

Track history (hours):
 
Tides and Currents Weather Stations Pressure Air Temp Water Temp Dewpoint Dewpoint Depression Visibility Wind Speed Wind Dir Waves Ship Positions

Finnhawk

Last reported at 2014-Oct-30 12:33 UTC. Time now 2014-Oct-31 05:43 UTC.
Position N 59°58' E 026°51'.

Length 163 m; draft 5.3 m.

Type: Ship. MMSI: 230007000.

Date/timePositionNaut miles runAvg speedWind from/ knotsBaromVisibWave heightAir tempDewpointWater temp
2014-Oct-30 12:33N 59°58' E 026°51'5116.9
2014-Oct-30 09:33N 60°10' E 025°13'3 3.1
2014-Oct-30 08:28N 60°13' E 025°12'0 0.0
2014-Oct-30 07:31N 60°13' E 025°12'0 0.0
2014-Oct-30 06:25N 60°13' E 025°12'0 0.0
2014-Oct-30 05:31N 60°13' E 025°12'0 0.0
2014-Oct-30 04:28N 60°13' E 025°12'5 5.3
2014-Oct-30 03:33N 60°08' E 025°12'2317.5
2014-Oct-30 02:15N 59°48' E 024°52'1217.1
2014-Oct-30 01:32N 59°44' E 024°29'1717.1
2014-Oct-30 00:33N 59°40' E 023°57'1717.1
2014-Oct-29 23:33N 59°35' E 023°25'22217.1
2014-Oct-29 10:33N 57°21' E 017°45'1917.6
2014-Oct-29 09:29N 57°03' E 017°32'3417.6
2014-Oct-29 07:34N 56°32' E 017°10'1817.5
2014-Oct-29 06:33N 56°15' E 016°58'6017.2
2014-Oct-29 03:04N 55°40' E 015°32'1017.5
2014-Oct-29 02:31N 55°35' E 015°17'1718.0
2014-Oct-29 01:33N 55°27' E 014°50'1818.5
2014-Oct-29 00:34N 55°15' E 014°27'1716.7
2014-Oct-28 23:33N 55°10' E 013°58'1818.1
2014-Oct-28 22:33N 55°13' E 013°27'1818.1
2014-Oct-28 21:33N 55°15' E 012°55'1413.5
2014-Oct-28 20:33N 55°25' E 012°39'1413.6
2014-Oct-28 19:33N 55°38' E 012°42'1515.5
2014-Oct-28 18:34N 55°54' E 012°39'1515.4
2014-Oct-28 17:33N 56°08' E 012°28'1717.0
2014-Oct-28 16:34N 56°17' E 012°03'1717.4
2014-Oct-28 15:34N 56°34' E 011°55'1817.5
2014-Oct-28 14:32N 56°51' E 011°48'1717.1
2014-Oct-28 13:34N 57°07' E 011°37'1716.9
2014-Oct-28 12:33N 57°23' E 011°26'1717.4
2014-Oct-28 11:33N 57°36' E 011°06'1716.8
2014-Oct-28 10:33N 57°46' E 010°41'1818.0
2014-Oct-28 09:34N 57°42' E 010°08'5718.0
2014-Oct-28 06:24N 57°12' E 008°37'32319.1
2014-Oct-27 13:33N 53°54' E 001°07'1919.1
2014-Oct-27 12:34N 53°45' E 000°40'1919.1
2014-Oct-27 11:34N 53°33' E 000°14'1615.6
2014-Oct-27 10:34N 53°38' W 000°11'7 7.2
2014-Oct-27 09:33N 53°44' W 000°16'0 0.3
2014-Oct-27 08:31N 53°44' W 000°16'0 0.0
2014-Oct-27 07:28N 53°44' W 000°16'0 0.0
2014-Oct-27 06:31N 53°44' W 000°16'0 0.0
2014-Oct-27 05:31N 53°44' W 000°16'0 0.0
2014-Oct-27 04:31N 53°44' W 000°16'0 0.0
2014-Oct-27 03:32N 53°44' W 000°16'0 0.0
2014-Oct-27 02:32N 53°44' W 000°16'0 0.0
2014-Oct-27 01:32N 53°44' W 000°16'0 0.0
2014-Oct-27 00:29N 53°44' W 000°16'0 0.0
2014-Oct-26 23:32N 53°44' W 000°16'0 0.0
2014-Oct-26 22:32N 53°44' W 000°16'0 0.0
2014-Oct-26 21:32N 53°44' W 000°16'0 0.0
2014-Oct-26 20:32N 53°44' W 000°16'0 0.0
2014-Oct-26 19:32N 53°44' W 000°16'0 0.0
2014-Oct-26 18:32N 53°44' W 000°16'0 0.0
2014-Oct-26 17:32N 53°44' W 000°16'0 0.0
2014-Oct-26 16:32N 53°44' W 000°16'0 0.0
2014-Oct-26 15:32N 53°44' W 000°16'0 0.0
2014-Oct-26 14:32N 53°44' W 000°16'0 0.0
2014-Oct-26 13:32N 53°44' W 000°16'0 0.0
2014-Oct-26 12:32N 53°44' W 000°16'0 0.0
2014-Oct-26 11:29N 53°44' W 000°16'0 0.3
2014-Oct-26 10:33N 53°44' W 000°16'3 2.5
2014-Oct-26 09:34N 53°42' W 000°14'6 5.8
2014-Oct-26 08:33N 53°38' W 000°08'1414.1
2014-Oct-26 07:33N 53°33' E 000°14'1111.3
2014-Oct-26 06:33N 53°41' E 000°28'1313.0
2014-Oct-26 05:33N 53°48' E 000°47'19614.8
2014-Oct-25 16:16N 55°33' E 005°34'15217.2
2014-Oct-25 07:25N 57°19' E 008°52'4917.1
2014-Oct-25 04:32N 57°43' E 010°12'1616.5
2014-Oct-25 03:33N 57°48' E 010°40'1716.5
2014-Oct-25 02:33N 57°40' E 011°07'1818.3
2014-Oct-25 01:33N 57°25' E 011°28'1919.3
2014-Oct-25 00:33N 57°07' E 011°40'1918.9
2014-Oct-24 23:33N 56°49' E 011°53'2018.3
2014-Oct-24 22:27N 56°30' E 012°04'1618.5
2014-Oct-24 21:33N 56°16' E 012°20'1818.3
2014-Oct-24 20:33N 56°02' E 012°40'1817.7
2014-Oct-24 19:33N 55°44' E 012°42'1111.2
2014-Oct-24 18:34N 55°33' E 012°43'1514.9
2014-Oct-24 17:33N 55°18' E 012°43'2017.3
2014-Oct-24 16:25N 55°15' E 013°17'1617.9
2014-Oct-24 15:33N 55°14' E 013°44'1817.8
2014-Oct-24 14:33N 55°14' E 014°15'1716.9
2014-Oct-24 13:33N 55°27' E 014°34'1717.1
2014-Oct-24 12:33N 55°36' E 014°60'1717.1
2014-Oct-24 11:33N 55°45' E 015°26'1717.2
2014-Oct-24 10:32N 55°53' E 015°54'8216.5
2014-Oct-24 05:33N 57°00' E 017°20'1717.1
2014-Oct-24 04:33N 57°16' E 017°30'182 3.6
2014-Oct-22 02:33N 59°34' E 021°17'2019.8
2014-Oct-22 01:33N 59°33' E 021°56'2919.7
2014-Oct-22 00:04N 59°37' E 022°53'1119.9
2014-Oct-21 23:32N 59°39' E 023°13'2719.6
2014-Oct-21 22:10N 59°46' E 024°05'1219.7
2014-Oct-21 21:34N 59°48' E 024°28'5819.2
2014-Oct-21 18:33N 60°08' E 026°17'1717.4
2014-Oct-21 17:33N 60°21' E 026°39'1211.9
2014-Oct-21 16:34N 60°29' E 026°57'0 0.0
2014-Oct-21 15:33N 60°29' E 026°57'0 0.0
2014-Oct-21 14:33N 60°29' E 026°57'0 0.0
2014-Oct-21 13:33N 60°29' E 026°57'0 0.0
2014-Oct-21 12:33N 60°29' E 026°57'0 0.0
2014-Oct-21 11:33N 60°29' E 026°57'0 0.0
2014-Oct-21 10:33N 60°29' E 026°57'0 0.0
2014-Oct-21 09:33N 60°29' E 026°57'0 0.0
2014-Oct-21 08:33N 60°29' E 026°57'0 0.0
2014-Oct-21 07:33N 60°29' E 026°57'0 0.0
2014-Oct-21 06:33N 60°29' E 026°57'0 0.0
2014-Oct-21 05:33N 60°29' E 026°57'0 0.0
2014-Oct-21 04:33N 60°29' E 026°57'0 0.0
2014-Oct-21 03:33N 60°29' E 026°57'0 0.0
2014-Oct-21 02:33N 60°29' E 026°57'9 9.3
2014-Oct-21 01:33N 60°22' E 026°44'1716.6
2014-Oct-21 00:34N 60°10' E 026°21'3611.3
2014-Oct-20 21:24N 60°03' E 025°11'1011.2
2014-Oct-20 20:33N 60°13' E 025°12'0 0.2
2014-Oct-20 19:31N 60°13' E 025°12'0 0.0
2014-Oct-20 18:31N 60°13' E 025°12'0 0.0
2014-Oct-20 17:31N 60°13' E 025°12'0 0.0
2014-Oct-20 16:31N 60°13' E 025°12'0 0.0
2014-Oct-20 15:31N 60°13' E 025°12'0 0.0
2014-Oct-20 14:31N 60°13' E 025°12'3 3.4
2014-Oct-20 13:34N 60°10' E 025°13'  
Track history (hours):
 
Tides and Currents Weather Stations Pressure Air Temp Water Temp Dewpoint Dewpoint Depression Visibility Wind Speed Wind Dir Waves Ship Positions

Finnhawk

Last reported at 2014-Oct-30 12:33 UTC. Time now 2014-Oct-31 05:43 UTC.
Position N 59°58' E 026°51'.

Length 163 m; draft 5.3 m.

Type: Ship. MMSI: 230007000.

Date/timePositionNaut miles runAvg speedWind from/ knotsBaromVisibWave heightAir tempDewpointWater temp
2014-Oct-30 12:33N 59°58' E 026°51'5116.9
2014-Oct-30 09:33N 60°10' E 025°13'3 3.1
2014-Oct-30 08:28N 60°13' E 025°12'0 0.0
2014-Oct-30 07:31N 60°13' E 025°12'0 0.0
2014-Oct-30 06:25N 60°13' E 025°12'0 0.0
2014-Oct-30 05:31N 60°13' E 025°12'0 0.0
2014-Oct-30 04:28N 60°13' E 025°12'5 5.3
2014-Oct-30 03:33N 60°08' E 025°12'2317.5
2014-Oct-30 02:15N 59°48' E 024°52'1217.1
2014-Oct-30 01:32N 59°44' E 024°29'1717.1
2014-Oct-30 00:33N 59°40' E 023°57'1717.1
2014-Oct-29 23:33N 59°35' E 023°25'22217.1
2014-Oct-29 10:33N 57°21' E 017°45'1917.6
2014-Oct-29 09:29N 57°03' E 017°32'3417.6
2014-Oct-29 07:34N 56°32' E 017°10'1817.5
2014-Oct-29 06:33N 56°15' E 016°58'6017.2
2014-Oct-29 03:04N 55°40' E 015°32'1017.5
2014-Oct-29 02:31N 55°35' E 015°17'1718.0
2014-Oct-29 01:33N 55°27' E 014°50'1818.5
2014-Oct-29 00:34N 55°15' E 014°27'1716.7
2014-Oct-28 23:33N 55°10' E 013°58'1818.1
2014-Oct-28 22:33N 55°13' E 013°27'1818.1
2014-Oct-28 21:33N 55°15' E 012°55'1413.5
2014-Oct-28 20:33N 55°25' E 012°39'1413.6
2014-Oct-28 19:33N 55°38' E 012°42'1515.5
2014-Oct-28 18:34N 55°54' E 012°39'1515.4
2014-Oct-28 17:33N 56°08' E 012°28'1717.0
2014-Oct-28 16:34N 56°17' E 012°03'1717.4
2014-Oct-28 15:34N 56°34' E 011°55'1817.5
2014-Oct-28 14:32N 56°51' E 011°48'1717.1
2014-Oct-28 13:34N 57°07' E 011°37'1716.9
2014-Oct-28 12:33N 57°23' E 011°26'1717.4
2014-Oct-28 11:33N 57°36' E 011°06'1716.8
2014-Oct-28 10:33N 57°46' E 010°41'1818.0
2014-Oct-28 09:34N 57°42' E 010°08'5718.0
2014-Oct-28 06:24N 57°12' E 008°37'32319.1
2014-Oct-27 13:33N 53°54' E 001°07'1919.1
2014-Oct-27 12:34N 53°45' E 000°40'1919.1
2014-Oct-27 11:34N 53°33' E 000°14'1615.6
2014-Oct-27 10:34N 53°38' W 000°11'7 7.2
2014-Oct-27 09:33N 53°44' W 000°16'0 0.3
2014-Oct-27 08:31N 53°44' W 000°16'0 0.0
2014-Oct-27 07:28N 53°44' W 000°16'0 0.0
2014-Oct-27 06:31N 53°44' W 000°16'0 0.0
2014-Oct-27 05:31N 53°44' W 000°16'0 0.0
2014-Oct-27 04:31N 53°44' W 000°16'0 0.0
2014-Oct-27 03:32N 53°44' W 000°16'0 0.0
2014-Oct-27 02:32N 53°44' W 000°16'0 0.0
2014-Oct-27 01:32N 53°44' W 000°16'0 0.0
2014-Oct-27 00:29N 53°44' W 000°16'0 0.0
2014-Oct-26 23:32N 53°44' W 000°16'0 0.0
2014-Oct-26 22:32N 53°44' W 000°16'0 0.0
2014-Oct-26 21:32N 53°44' W 000°16'0 0.0
2014-Oct-26 20:32N 53°44' W 000°16'0 0.0
2014-Oct-26 19:32N 53°44' W 000°16'0 0.0
2014-Oct-26 18:32N 53°44' W 000°16'0 0.0
2014-Oct-26 17:32N 53°44' W 000°16'0 0.0
2014-Oct-26 16:32N 53°44' W 000°16'0 0.0
2014-Oct-26 15:32N 53°44' W 000°16'0 0.0
2014-Oct-26 14:32N 53°44' W 000°16'0 0.0
2014-Oct-26 13:32N 53°44' W 000°16'0 0.0
2014-Oct-26 12:32N 53°44' W 000°16'0 0.0
2014-Oct-26 11:29N 53°44' W 000°16'0 0.3
2014-Oct-26 10:33N 53°44' W 000°16'3 2.5
2014-Oct-26 09:34N 53°42' W 000°14'6 5.8
2014-Oct-26 08:33N 53°38' W 000°08'1414.1
2014-Oct-26 07:33N 53°33' E 000°14'1111.3
2014-Oct-26 06:33N 53°41' E 000°28'1313.0
2014-Oct-26 05:33N 53°48' E 000°47'19614.8
2014-Oct-25 16:16N 55°33' E 005°34'15217.2
2014-Oct-25 07:25N 57°19' E 008°52'4917.1
2014-Oct-25 04:32N 57°43' E 010°12'1616.5
2014-Oct-25 03:33N 57°48' E 010°40'1716.5
2014-Oct-25 02:33N 57°40' E 011°07'1818.3
2014-Oct-25 01:33N 57°25' E 011°28'1919.3
2014-Oct-25 00:33N 57°07' E 011°40'1918.9
2014-Oct-24 23:33N 56°49' E 011°53'2018.3
2014-Oct-24 22:27N 56°30' E 012°04'1618.5
2014-Oct-24 21:33N 56°16' E 012°20'1818.3
2014-Oct-24 20:33N 56°02' E 012°40'1817.7
2014-Oct-24 19:33N 55°44' E 012°42'1111.2
2014-Oct-24 18:34N 55°33' E 012°43'1514.9
2014-Oct-24 17:33N 55°18' E 012°43'2017.3
2014-Oct-24 16:25N 55°15' E 013°17'1617.9
2014-Oct-24 15:33N 55°14' E 013°44'1817.8
2014-Oct-24 14:33N 55°14' E 014°15'1716.9
2014-Oct-24 13:33N 55°27' E 014°34'1717.1
2014-Oct-24 12:33N 55°36' E 014°60'1717.1
2014-Oct-24 11:33N 55°45' E 015°26'1717.2
2014-Oct-24 10:32N 55°53' E 015°54'8216.5
2014-Oct-24 05:33N 57°00' E 017°20'1717.1
2014-Oct-24 04:33N 57°16' E 017°30'182 3.6
2014-Oct-22 02:33N 59°34' E 021°17'2019.8
2014-Oct-22 01:33N 59°33' E 021°56'2919.7
2014-Oct-22 00:04N 59°37' E 022°53'1119.9
2014-Oct-21 23:32N 59°39' E 023°13'2719.6
2014-Oct-21 22:10N 59°46' E 024°05'1219.7
2014-Oct-21 21:34N 59°48' E 024°28'5819.2
2014-Oct-21 18:33N 60°08' E 026°17'1717.4
2014-Oct-21 17:33N 60°21' E 026°39'1211.9
2014-Oct-21 16:34N 60°29' E 026°57'0 0.0
2014-Oct-21 15:33N 60°29' E 026°57'0 0.0
2014-Oct-21 14:33N 60°29' E 026°57'0 0.0
2014-Oct-21 13:33N 60°29' E 026°57'0 0.0
2014-Oct-21 12:33N 60°29' E 026°57'0 0.0
2014-Oct-21 11:33N 60°29' E 026°57'0 0.0
2014-Oct-21 10:33N 60°29' E 026°57'0 0.0
2014-Oct-21 09:33N 60°29' E 026°57'0 0.0
2014-Oct-21 08:33N 60°29' E 026°57'0 0.0
2014-Oct-21 07:33N 60°29' E 026°57'0 0.0
2014-Oct-21 06:33N 60°29' E 026°57'0 0.0
2014-Oct-21 05:33N 60°29' E 026°57'0 0.0
2014-Oct-21 04:33N 60°29' E 026°57'0 0.0
2014-Oct-21 03:33N 60°29' E 026°57'0 0.0
2014-Oct-21 02:33N 60°29' E 026°57'9 9.3
2014-Oct-21 01:33N 60°22' E 026°44'1716.6
2014-Oct-21 00:34N 60°10' E 026°21'3611.3
2014-Oct-20 21:24N 60°03' E 025°11'1011.2
2014-Oct-20 20:33N 60°13' E 025°12'0 0.2
2014-Oct-20 19:31N 60°13' E 025°12'0 0.0
2014-Oct-20 18:31N 60°13' E 025°12'0 0.0
2014-Oct-20 17:31N 60°13' E 025°12'0 0.0
2014-Oct-20 16:31N 60°13' E 025°12'0 0.0
2014-Oct-20 15:31N 60°13' E 025°12'0 0.0
2014-Oct-20 14:31N 60°13' E 025°12'3 3.4
2014-Oct-20 13:34N 60°10' E 025°13'  

Dump ship's entire track history